sensor_id;sensor_type;location;lat;lon;timestamp;P1;durP1;ratioP1;P2;durP2;ratioP2
75854;SDS011;64502;59.976;30.316;2023-08-12T00:01:03;6.55;;;3.47;;
75854;SDS011;64502;59.976;30.316;2023-08-12T00:03:28;8.15;;;5.30;;
75854;SDS011;64502;59.976;30.316;2023-08-12T00:05:54;9.57;;;5.97;;
75854;SDS011;64502;59.976;30.316;2023-08-12T00:08:21;9.82;;;5.60;;
75854;SDS011;64502;59.976;30.316;2023-08-12T00:10:47;9.52;;;7.28;;
75854;SDS011;64502;59.976;30.316;2023-08-12T00:13:12;12.52;;;7.30;;
75854;SDS011;64502;59.976;30.316;2023-08-12T00:15:42;14.20;;;6.85;;
75854;SDS011;64502;59.976;30.316;2023-08-12T00:18:08;13.88;;;7.40;;
75854;SDS011;64502;59.976;30.316;2023-08-12T00:20:34;14.10;;;6.35;;
75854;SDS011;64502;59.976;30.316;2023-08-12T00:22:59;12.60;;;6.80;;
75854;SDS011;64502;59.976;30.316;2023-08-12T00:25:24;10.25;;;6.15;;
75854;SDS011;64502;59.976;30.316;2023-08-12T00:27:50;10.60;;;6.18;;
75854;SDS011;64502;59.976;30.316;2023-08-12T00:30:16;10.30;;;5.65;;
75854;SDS011;64502;59.976;30.316;2023-08-12T00:32:41;10.43;;;5.03;;
75854;SDS011;64502;59.976;30.316;2023-08-12T00:35:06;11.38;;;5.40;;
75854;SDS011;64502;59.976;30.316;2023-08-12T00:37:32;11.20;;;5.60;;
75854;SDS011;64502;59.976;30.316;2023-08-12T00:39:58;10.25;;;5.13;;
75854;SDS011;64502;59.976;30.316;2023-08-12T00:42:23;10.05;;;5.47;;
75854;SDS011;64502;59.976;30.316;2023-08-12T00:44:48;8.63;;;5.13;;
75854;SDS011;64502;59.976;30.316;2023-08-12T00:47:14;9.57;;;4.97;;
75854;SDS011;64502;59.976;30.316;2023-08-12T00:49:41;9.55;;;4.72;;
75854;SDS011;64502;59.976;30.316;2023-08-12T00:52:10;9.13;;;5.00;;
75854;SDS011;64502;59.976;30.316;2023-08-12T00:54:38;5.43;;;3.53;;
75854;SDS011;64502;59.976;30.316;2023-08-12T00:57:03;6.32;;;4.20;;
75854;SDS011;64502;59.976;30.316;2023-08-12T00:59:30;5.32;;;3.50;;
75854;SDS011;64502;59.976;30.316;2023-08-12T01:01:57;7.10;;;3.70;;
75854;SDS011;64502;59.976;30.316;2023-08-12T01:04:23;6.70;;;3.85;;
75854;SDS011;64502;59.976;30.316;2023-08-12T01:06:49;6.30;;;2.90;;
75854;SDS011;64502;59.976;30.316;2023-08-12T01:09:14;4.32;;;2.65;;
75854;SDS011;64502;59.976;30.316;2023-08-12T01:11:49;4.78;;;2.80;;
75854;SDS011;64502;59.976;30.316;2023-08-12T01:17:30;5.90;;;2.60;;
75854;SDS011;64502;59.976;30.316;2023-08-12T01:19:58;5.40;;;2.63;;
75854;SDS011;64502;59.976;30.316;2023-08-12T01:22:25;4.18;;;2.55;;
75854;SDS011;64502;59.976;30.316;2023-08-12T01:24:52;5.07;;;2.95;;
75854;SDS011;64502;59.976;30.316;2023-08-12T01:27:18;3.95;;;3.08;;
75854;SDS011;64502;59.976;30.316;2023-08-12T01:29:45;6.25;;;2.78;;
75854;SDS011;64502;59.976;30.316;2023-08-12T01:32:20;5.38;;;3.03;;
75854;SDS011;64502;59.976;30.316;2023-08-12T01:37:34;6.65;;;2.60;;
75854;SDS011;64502;59.976;30.316;2023-08-12T01:40:02;3.63;;;2.42;;
75854;SDS011;64502;59.976;30.316;2023-08-12T01:42:29;6.43;;;2.75;;
75854;SDS011;64502;59.976;30.316;2023-08-12T01:44:57;5.70;;;2.22;;
75854;SDS011;64502;59.976;30.316;2023-08-12T01:47:22;4.78;;;2.70;;
75854;SDS011;64502;59.976;30.316;2023-08-12T01:49:48;6.63;;;2.63;;
75854;SDS011;64502;59.976;30.316;2023-08-12T01:52:13;5.15;;;2.45;;
75854;SDS011;64502;59.976;30.316;2023-08-12T01:54:39;5.53;;;2.97;;
75854;SDS011;64502;59.976;30.316;2023-08-12T01:57:04;5.55;;;2.65;;
75854;SDS011;64502;59.976;30.316;2023-08-12T01:59:39;4.70;;;2.60;;
75854;SDS011;64502;59.976;30.316;2023-08-12T02:02:05;5.47;;;2.85;;
75854;SDS011;64502;59.976;30.316;2023-08-12T02:04:30;7.43;;;3.95;;
75854;SDS011;64502;59.976;30.316;2023-08-12T02:06:56;6.18;;;2.72;;
75854;SDS011;64502;59.976;30.316;2023-08-12T02:09:22;5.20;;;3.10;;
75854;SDS011;64502;59.976;30.316;2023-08-12T02:11:48;4.50;;;2.40;;
75854;SDS011;64502;59.976;30.316;2023-08-12T02:14:14;9.27;;;2.80;;
75854;SDS011;64502;59.976;30.316;2023-08-12T02:16:40;6.03;;;3.00;;
75854;SDS011;64502;59.976;30.316;2023-08-12T02:19:05;3.92;;;2.58;;
75854;SDS011;64502;59.976;30.316;2023-08-12T02:21:31;5.28;;;2.55;;
75854;SDS011;64502;59.976;30.316;2023-08-12T02:23:57;5.50;;;2.65;;
75854;SDS011;64502;59.976;30.316;2023-08-12T02:26:22;3.58;;;2.38;;
75854;SDS011;64502;59.976;30.316;2023-08-12T02:28:48;4.00;;;2.58;;
75854;SDS011;64502;59.976;30.316;2023-08-12T02:31:14;4.68;;;3.00;;
75854;SDS011;64502;59.976;30.316;2023-08-12T02:33:41;5.72;;;2.65;;
75854;SDS011;64502;59.976;30.316;2023-08-12T02:36:06;4.53;;;2.40;;
75854;SDS011;64502;59.976;30.316;2023-08-12T02:38:32;3.95;;;2.65;;
75854;SDS011;64502;59.976;30.316;2023-08-12T02:40:57;4.18;;;2.45;;
75854;SDS011;64502;59.976;30.316;2023-08-12T02:43:23;4.22;;;2.60;;
75854;SDS011;64502;59.976;30.316;2023-08-12T02:45:48;5.30;;;3.10;;
75854;SDS011;64502;59.976;30.316;2023-08-12T02:48:14;5.05;;;2.85;;
75854;SDS011;64502;59.976;30.316;2023-08-12T02:50:39;6.88;;;2.70;;
75854;SDS011;64502;59.976;30.316;2023-08-12T02:53:05;4.32;;;2.67;;
75854;SDS011;64502;59.976;30.316;2023-08-12T02:55:31;3.58;;;2.70;;
75854;SDS011;64502;59.976;30.316;2023-08-12T02:57:57;5.70;;;3.35;;
75854;SDS011;64502;59.976;30.316;2023-08-12T03:00:23;7.25;;;3.33;;
75854;SDS011;64502;59.976;30.316;2023-08-12T03:02:49;4.75;;;2.63;;
75854;SDS011;64502;59.976;30.316;2023-08-12T03:05:14;7.00;;;3.58;;
75854;SDS011;64502;59.976;30.316;2023-08-12T03:07:40;6.32;;;2.90;;
75854;SDS011;64502;59.976;30.316;2023-08-12T03:10:06;6.82;;;3.42;;
75854;SDS011;64502;59.976;30.316;2023-08-12T03:12:32;4.70;;;2.80;;
75854;SDS011;64502;59.976;30.316;2023-08-12T03:14:57;6.03;;;2.97;;
75854;SDS011;64502;59.976;30.316;2023-08-12T03:17:22;5.05;;;2.63;;
75854;SDS011;64502;59.976;30.316;2023-08-12T03:19:48;5.22;;;2.63;;
75854;SDS011;64502;59.976;30.316;2023-08-12T03:22:14;5.15;;;2.90;;
75854;SDS011;64502;59.976;30.316;2023-08-12T03:24:39;4.97;;;2.78;;
75854;SDS011;64502;59.976;30.316;2023-08-12T03:27:05;7.43;;;3.15;;
75854;SDS011;64502;59.976;30.316;2023-08-12T03:29:30;8.25;;;3.10;;
75854;SDS011;64502;59.976;30.316;2023-08-12T03:31:56;7.75;;;3.45;;
75854;SDS011;64502;59.976;30.316;2023-08-12T03:34:22;6.45;;;3.83;;
75854;SDS011;64502;59.976;30.316;2023-08-12T03:36:47;7.13;;;3.65;;
75854;SDS011;64502;59.976;30.316;2023-08-12T03:39:14;4.68;;;3.00;;
75854;SDS011;64502;59.976;30.316;2023-08-12T03:41:39;6.38;;;3.53;;
75854;SDS011;64502;59.976;30.316;2023-08-12T03:44:05;8.32;;;3.80;;
75854;SDS011;64502;59.976;30.316;2023-08-12T03:46:30;6.82;;;3.65;;
75854;SDS011;64502;59.976;30.316;2023-08-12T03:48:56;8.38;;;3.88;;
75854;SDS011;64502;59.976;30.316;2023-08-12T03:51:21;7.97;;;3.30;;
75854;SDS011;64502;59.976;30.316;2023-08-12T03:53:47;8.23;;;4.15;;
75854;SDS011;64502;59.976;30.316;2023-08-12T03:56:12;8.05;;;3.97;;
75854;SDS011;64502;59.976;30.316;2023-08-12T03:58:40;6.55;;;2.90;;
75854;SDS011;64502;59.976;30.316;2023-08-12T04:01:06;7.43;;;3.92;;
75854;SDS011;64502;59.976;30.316;2023-08-12T04:03:33;7.18;;;3.65;;
75854;SDS011;64502;59.976;30.316;2023-08-12T04:05:59;7.07;;;3.78;;
75854;SDS011;64502;59.976;30.316;2023-08-12T04:08:24;6.55;;;2.70;;
75854;SDS011;64502;59.976;30.316;2023-08-12T04:10:50;9.70;;;3.50;;
75854;SDS011;64502;59.976;30.316;2023-08-12T04:13:17;6.90;;;3.30;;
75854;SDS011;64502;59.976;30.316;2023-08-12T04:15:42;5.13;;;3.10;;
75854;SDS011;64502;59.976;30.316;2023-08-12T04:18:13;8.80;;;3.28;;
75854;SDS011;64502;59.976;30.316;2023-08-12T04:20:38;6.10;;;3.30;;
75854;SDS011;64502;59.976;30.316;2023-08-12T04:23:04;5.38;;;3.53;;
75854;SDS011;64502;59.976;30.316;2023-08-12T04:25:30;7.88;;;2.95;;
75854;SDS011;64502;59.976;30.316;2023-08-12T04:27:55;6.28;;;3.60;;
75854;SDS011;64502;59.976;30.316;2023-08-12T04:30:21;6.00;;;2.60;;
75854;SDS011;64502;59.976;30.316;2023-08-12T04:32:46;6.60;;;3.10;;
75854;SDS011;64502;59.976;30.316;2023-08-12T04:35:11;10.05;;;3.25;;
75854;SDS011;64502;59.976;30.316;2023-08-12T04:37:37;6.00;;;2.90;;
75854;SDS011;64502;59.976;30.316;2023-08-12T04:40:02;6.53;;;3.25;;
75854;SDS011;64502;59.976;30.316;2023-08-12T04:42:30;5.93;;;3.05;;
75854;SDS011;64502;59.976;30.316;2023-08-12T04:44:55;4.50;;;2.53;;
75854;SDS011;64502;59.976;30.316;2023-08-12T04:47:21;6.50;;;2.22;;
75854;SDS011;64502;59.976;30.316;2023-08-12T04:49:46;6.50;;;2.70;;
75854;SDS011;64502;59.976;30.316;2023-08-12T04:52:12;7.13;;;3.10;;
75854;SDS011;64502;59.976;30.316;2023-08-12T04:54:37;5.30;;;3.35;;
75854;SDS011;64502;59.976;30.316;2023-08-12T04:57:02;5.28;;;2.95;;
75854;SDS011;64502;59.976;30.316;2023-08-12T04:59:28;4.93;;;2.88;;
75854;SDS011;64502;59.976;30.316;2023-08-12T05:01:54;4.25;;;2.47;;
75854;SDS011;64502;59.976;30.316;2023-08-12T05:04:19;6.32;;;2.88;;
75854;SDS011;64502;59.976;30.316;2023-08-12T05:06:44;4.55;;;3.10;;
75854;SDS011;64502;59.976;30.316;2023-08-12T05:09:10;6.38;;;2.80;;
75854;SDS011;64502;59.976;30.316;2023-08-12T05:11:35;6.22;;;3.17;;
75854;SDS011;64502;59.976;30.316;2023-08-12T05:14:01;7.30;;;3.25;;
75854;SDS011;64502;59.976;30.316;2023-08-12T05:16:26;7.88;;;3.25;;
75854;SDS011;64502;59.976;30.316;2023-08-12T05:18:52;6.80;;;3.47;;
75854;SDS011;64502;59.976;30.316;2023-08-12T05:21:17;6.63;;;3.63;;
75854;SDS011;64502;59.976;30.316;2023-08-12T05:23:43;8.90;;;2.72;;
75854;SDS011;64502;59.976;30.316;2023-08-12T05:26:08;9.27;;;3.67;;
75854;SDS011;64502;59.976;30.316;2023-08-12T05:28:34;8.25;;;4.07;;
75854;SDS011;64502;59.976;30.316;2023-08-12T05:30:59;5.97;;;3.05;;
75854;SDS011;64502;59.976;30.316;2023-08-12T05:33:25;6.15;;;3.05;;
75854;SDS011;64502;59.976;30.316;2023-08-12T05:35:50;7.93;;;3.78;;
75854;SDS011;64502;59.976;30.316;2023-08-12T05:38:16;7.50;;;3.67;;
75854;SDS011;64502;59.976;30.316;2023-08-12T05:40:41;5.82;;;3.15;;
75854;SDS011;64502;59.976;30.316;2023-08-12T05:43:07;5.97;;;3.20;;
75854;SDS011;64502;59.976;30.316;2023-08-12T05:45:33;9.23;;;3.47;;
75854;SDS011;64502;59.976;30.316;2023-08-12T05:47:59;4.88;;;2.88;;
75854;SDS011;64502;59.976;30.316;2023-08-12T05:50:24;4.97;;;3.47;;
75854;SDS011;64502;59.976;30.316;2023-08-12T05:52:49;6.82;;;2.97;;
75854;SDS011;64502;59.976;30.316;2023-08-12T05:55:15;5.65;;;3.00;;
75854;SDS011;64502;59.976;30.316;2023-08-12T05:57:40;6.05;;;3.50;;
75854;SDS011;64502;59.976;30.316;2023-08-12T06:00:06;4.60;;;2.97;;
75854;SDS011;64502;59.976;30.316;2023-08-12T06:02:32;4.88;;;2.88;;
75854;SDS011;64502;59.976;30.316;2023-08-12T06:04:57;5.60;;;2.95;;
75854;SDS011;64502;59.976;30.316;2023-08-12T06:07:23;4.90;;;2.60;;
75854;SDS011;64502;59.976;30.316;2023-08-12T06:09:49;4.55;;;2.42;;
75854;SDS011;64502;59.976;30.316;2023-08-12T06:12:15;5.00;;;3.00;;
75854;SDS011;64502;59.976;30.316;2023-08-12T06:14:41;5.35;;;2.65;;
75854;SDS011;64502;59.976;30.316;2023-08-12T06:17:07;6.88;;;3.22;;
75854;SDS011;64502;59.976;30.316;2023-08-12T06:19:32;6.72;;;2.97;;
75854;SDS011;64502;59.976;30.316;2023-08-12T06:21:58;5.90;;;3.10;;
75854;SDS011;64502;59.976;30.316;2023-08-12T06:24:23;3.95;;;3.40;;
75854;SDS011;64502;59.976;30.316;2023-08-12T06:26:49;5.03;;;2.95;;
75854;SDS011;64502;59.976;30.316;2023-08-12T06:29:14;6.93;;;3.15;;
75854;SDS011;64502;59.976;30.316;2023-08-12T06:31:39;4.80;;;3.15;;
75854;SDS011;64502;59.976;30.316;2023-08-12T06:34:05;5.45;;;2.50;;
75854;SDS011;64502;59.976;30.316;2023-08-12T06:36:31;3.78;;;2.45;;
75854;SDS011;64502;59.976;30.316;2023-08-12T06:38:56;5.57;;;2.90;;
75854;SDS011;64502;59.976;30.316;2023-08-12T06:41:22;5.32;;;2.58;;
75854;SDS011;64502;59.976;30.316;2023-08-12T06:43:47;8.20;;;3.10;;
75854;SDS011;64502;59.976;30.316;2023-08-12T06:46:13;3.70;;;2.47;;
75854;SDS011;64502;59.976;30.316;2023-08-12T06:48:38;6.78;;;3.45;;
75854;SDS011;64502;59.976;30.316;2023-08-12T06:51:04;5.55;;;2.72;;
75854;SDS011;64502;59.976;30.316;2023-08-12T06:53:35;5.15;;;2.65;;
75854;SDS011;64502;59.976;30.316;2023-08-12T06:56:02;4.90;;;2.47;;
75854;SDS011;64502;59.976;30.316;2023-08-12T06:58:27;6.63;;;2.45;;
75854;SDS011;64502;59.976;30.316;2023-08-12T07:00:53;5.07;;;2.25;;
75854;SDS011;64502;59.976;30.316;2023-08-12T07:03:19;5.00;;;2.65;;
75854;SDS011;64502;59.976;30.316;2023-08-12T07:05:45;5.60;;;3.47;;
75854;SDS011;64502;59.976;30.316;2023-08-12T07:08:10;4.25;;;1.77;;
75854;SDS011;64502;59.976;30.316;2023-08-12T07:10:39;4.45;;;2.33;;
75854;SDS011;64502;59.976;30.316;2023-08-12T07:13:05;4.55;;;2.72;;
75854;SDS011;64502;59.976;30.316;2023-08-12T07:15:30;5.72;;;2.88;;
75854;SDS011;64502;59.976;30.316;2023-08-12T07:17:56;5.93;;;2.72;;
75854;SDS011;64502;59.976;30.316;2023-08-12T07:20:23;6.70;;;3.05;;
75854;SDS011;64502;59.976;30.316;2023-08-12T07:22:49;8.63;;;3.35;;
75854;SDS011;64502;59.976;30.316;2023-08-12T07:25:15;7.13;;;3.08;;
75854;SDS011;64502;59.976;30.316;2023-08-12T07:27:40;7.80;;;3.70;;
75854;SDS011;64502;59.976;30.316;2023-08-12T07:30:06;5.38;;;3.38;;
75854;SDS011;64502;59.976;30.316;2023-08-12T07:32:32;8.02;;;3.65;;
75854;SDS011;64502;59.976;30.316;2023-08-12T07:34:58;5.18;;;3.50;;
75854;SDS011;64502;59.976;30.316;2023-08-12T07:37:25;6.30;;;3.20;;
75854;SDS011;64502;59.976;30.316;2023-08-12T07:39:50;9.35;;;3.80;;
75854;SDS011;64502;59.976;30.316;2023-08-12T07:42:16;7.60;;;3.35;;
75854;SDS011;64502;59.976;30.316;2023-08-12T07:44:42;5.97;;;3.60;;
75854;SDS011;64502;59.976;30.316;2023-08-12T07:47:07;6.35;;;3.63;;
75854;SDS011;64502;59.976;30.316;2023-08-12T07:49:34;5.88;;;4.00;;
75854;SDS011;64502;59.976;30.316;2023-08-12T07:52:00;5.18;;;3.08;;
75854;SDS011;64502;59.976;30.316;2023-08-12T07:54:25;7.15;;;3.20;;
75854;SDS011;64502;59.976;30.316;2023-08-12T07:56:51;6.60;;;3.63;;
75854;SDS011;64502;59.976;30.316;2023-08-12T07:59:18;7.15;;;3.45;;
75854;SDS011;64502;59.976;30.316;2023-08-12T08:01:44;7.57;;;4.13;;
75854;SDS011;64502;59.976;30.316;2023-08-12T08:04:10;5.13;;;3.63;;
75854;SDS011;64502;59.976;30.316;2023-08-12T08:06:36;7.72;;;3.33;;
75854;SDS011;64502;59.976;30.316;2023-08-12T08:09:01;7.55;;;3.88;;
75854;SDS011;64502;59.976;30.316;2023-08-12T08:11:28;5.28;;;3.17;;
75854;SDS011;64502;59.976;30.316;2023-08-12T08:13:55;7.22;;;3.50;;
75854;SDS011;64502;59.976;30.316;2023-08-12T08:16:20;7.13;;;4.07;;
75854;SDS011;64502;59.976;30.316;2023-08-12T08:18:47;6.47;;;3.45;;
75854;SDS011;64502;59.976;30.316;2023-08-12T08:21:12;9.75;;;3.83;;
75854;SDS011;64502;59.976;30.316;2023-08-12T08:23:39;8.55;;;3.78;;
75854;SDS011;64502;59.976;30.316;2023-08-12T08:26:06;8.07;;;3.10;;
75854;SDS011;64502;59.976;30.316;2023-08-12T08:28:32;9.20;;;4.13;;
75854;SDS011;64502;59.976;30.316;2023-08-12T08:30:57;5.38;;;4.28;;
75854;SDS011;64502;59.976;30.316;2023-08-12T08:33:23;5.32;;;2.78;;
75854;SDS011;64502;59.976;30.316;2023-08-12T08:35:49;6.55;;;3.53;;
75854;SDS011;64502;59.976;30.316;2023-08-12T08:38:15;5.93;;;2.85;;
75854;SDS011;64502;59.976;30.316;2023-08-12T08:40:41;6.85;;;3.55;;
75854;SDS011;64502;59.976;30.316;2023-08-12T08:43:07;6.82;;;3.78;;
75854;SDS011;64502;59.976;30.316;2023-08-12T08:45:33;6.57;;;3.40;;
75854;SDS011;64502;59.976;30.316;2023-08-12T08:47:59;8.70;;;3.65;;
75854;SDS011;64502;59.976;30.316;2023-08-12T08:50:26;9.50;;;3.78;;
75854;SDS011;64502;59.976;30.316;2023-08-12T08:55:21;6.45;;;4.93;;
75854;SDS011;64502;59.976;30.316;2023-08-12T08:57:47;6.15;;;3.92;;
75854;SDS011;64502;59.976;30.316;2023-08-12T09:00:14;7.63;;;3.85;;
75854;SDS011;64502;59.976;30.316;2023-08-12T09:02:41;6.95;;;4.57;;
75854;SDS011;64502;59.976;30.316;2023-08-12T09:05:18;9.48;;;4.40;;
75854;SDS011;64502;59.976;30.316;2023-08-12T09:07:45;8.70;;;3.58;;
75854;SDS011;64502;59.976;30.316;2023-08-12T09:10:12;7.38;;;4.13;;
75854;SDS011;64502;59.976;30.316;2023-08-12T09:12:38;6.32;;;3.53;;
75854;SDS011;64502;59.976;30.316;2023-08-12T09:15:03;8.13;;;3.60;;
75854;SDS011;64502;59.976;30.316;2023-08-12T09:17:31;8.27;;;3.55;;
75854;SDS011;64502;59.976;30.316;2023-08-12T09:19:57;6.25;;;3.15;;
75854;SDS011;64502;59.976;30.316;2023-08-12T09:22:23;7.50;;;3.80;;
75854;SDS011;64502;59.976;30.316;2023-08-12T09:24:50;4.72;;;2.88;;
75854;SDS011;64502;59.976;30.316;2023-08-12T09:27:21;6.97;;;3.25;;
75854;SDS011;64502;59.976;30.316;2023-08-12T09:29:46;4.72;;;3.25;;
75854;SDS011;64502;59.976;30.316;2023-08-12T09:32:12;7.28;;;3.53;;
75854;SDS011;64502;59.976;30.316;2023-08-12T09:37:17;4.28;;;3.00;;
75854;SDS011;64502;59.976;30.316;2023-08-12T09:39:43;6.90;;;2.63;;
75854;SDS011;64502;59.976;30.316;2023-08-12T09:42:10;5.82;;;3.03;;
75854;SDS011;64502;59.976;30.316;2023-08-12T09:44:37;5.05;;;2.67;;
75854;SDS011;64502;59.976;30.316;2023-08-12T09:47:03;5.28;;;2.63;;
75854;SDS011;64502;59.976;30.316;2023-08-12T09:49:29;5.47;;;3.05;;
75854;SDS011;64502;59.976;30.316;2023-08-12T09:51:55;4.32;;;3.03;;
75854;SDS011;64502;59.976;30.316;2023-08-12T09:54:21;4.50;;;2.80;;
75854;SDS011;64502;59.976;30.316;2023-08-12T09:56:47;9.50;;;6.10;;
75854;SDS011;64502;59.976;30.316;2023-08-12T09:59:16;5.88;;;3.40;;
75854;SDS011;64502;59.976;30.316;2023-08-12T10:01:48;6.53;;;3.17;;
75854;SDS011;64502;59.976;30.316;2023-08-12T10:04:15;7.82;;;3.00;;
75854;SDS011;64502;59.976;30.316;2023-08-12T10:06:43;5.75;;;3.05;;
75854;SDS011;64502;59.976;30.316;2023-08-12T10:09:09;4.65;;;3.10;;
75854;SDS011;64502;59.976;30.316;2023-08-12T10:11:36;5.85;;;3.28;;
75854;SDS011;64502;59.976;30.316;2023-08-12T10:14:05;5.05;;;3.10;;
75854;SDS011;64502;59.976;30.316;2023-08-12T10:16:31;6.50;;;3.30;;
75854;SDS011;64502;59.976;30.316;2023-08-12T10:18:58;6.20;;;3.35;;
75854;SDS011;64502;59.976;30.316;2023-08-12T10:21:25;7.47;;;3.08;;
75854;SDS011;64502;59.976;30.316;2023-08-12T10:23:52;4.82;;;3.10;;
75854;SDS011;64502;59.976;30.316;2023-08-12T10:26:18;4.40;;;2.78;;
75854;SDS011;64502;59.976;30.316;2023-08-12T10:28:44;3.50;;;2.80;;
75854;SDS011;64502;59.976;30.316;2023-08-12T10:31:13;6.30;;;3.75;;
75854;SDS011;64502;59.976;30.316;2023-08-12T10:33:39;7.47;;;3.60;;
75854;SDS011;64502;59.976;30.316;2023-08-12T10:36:05;6.43;;;2.95;;
75854;SDS011;64502;59.976;30.316;2023-08-12T10:38:32;4.95;;;2.80;;
75854;SDS011;64502;59.976;30.316;2023-08-12T10:44:01;4.70;;;3.08;;
75854;SDS011;64502;59.976;30.316;2023-08-12T10:46:36;6.43;;;3.28;;
75854;SDS011;64502;59.976;30.316;2023-08-12T10:49:11;4.47;;;3.00;;
75854;SDS011;64502;59.976;30.316;2023-08-12T10:51:46;3.95;;;3.03;;
75854;SDS011;64502;59.976;30.316;2023-08-12T10:54:24;5.38;;;3.22;;
75854;SDS011;64502;59.976;30.316;2023-08-12T10:59:48;5.88;;;3.05;;
75854;SDS011;64502;59.976;30.316;2023-08-12T11:04:44;4.22;;;2.80;;
75854;SDS011;64502;59.976;30.316;2023-08-12T11:07:17;4.22;;;2.90;;
75854;SDS011;64502;59.976;30.316;2023-08-12T11:09:44;3.88;;;2.70;;
75854;SDS011;64502;59.976;30.316;2023-08-12T11:12:10;4.10;;;2.88;;
75854;SDS011;64502;59.976;30.316;2023-08-12T11:14:49;4.95;;;2.55;;
75854;SDS011;64502;59.976;30.316;2023-08-12T11:17:18;4.82;;;3.22;;
75854;SDS011;64502;59.976;30.316;2023-08-12T11:19:44;5.10;;;3.03;;
75854;SDS011;64502;59.976;30.316;2023-08-12T11:22:09;4.05;;;3.45;;
75854;SDS011;64502;59.976;30.316;2023-08-12T11:24:39;3.33;;;2.60;;
75854;SDS011;64502;59.976;30.316;2023-08-12T11:27:09;3.40;;;2.88;;
75854;SDS011;64502;59.976;30.316;2023-08-12T11:29:35;4.22;;;3.25;;
75854;SDS011;64502;59.976;30.316;2023-08-12T11:32:02;4.03;;;3.40;;
75854;SDS011;64502;59.976;30.316;2023-08-12T11:34:28;5.03;;;3.05;;
75854;SDS011;64502;59.976;30.316;2023-08-12T11:36:53;3.88;;;2.70;;
75854;SDS011;64502;59.976;30.316;2023-08-12T11:39:19;5.97;;;3.42;;
75854;SDS011;64502;59.976;30.316;2023-08-12T11:41:46;6.00;;;3.50;;
75854;SDS011;64502;59.976;30.316;2023-08-12T11:44:32;5.45;;;3.58;;
75854;SDS011;64502;59.976;30.316;2023-08-12T11:46:57;4.90;;;3.85;;
75854;SDS011;64502;59.976;30.316;2023-08-12T11:49:23;5.57;;;3.88;;
75854;SDS011;64502;59.976;30.316;2023-08-12T11:51:48;3.70;;;3.40;;
75854;SDS011;64502;59.976;30.316;2023-08-12T11:54:15;5.30;;;4.30;;
75854;SDS011;64502;59.976;30.316;2023-08-12T11:56:41;4.55;;;4.15;;
75854;SDS011;64502;59.976;30.316;2023-08-12T11:59:07;9.13;;;4.80;;
75854;SDS011;64502;59.976;30.316;2023-08-12T12:01:32;5.50;;;4.65;;
75854;SDS011;64502;59.976;30.316;2023-08-12T12:04:01;6.20;;;4.68;;
75854;SDS011;64502;59.976;30.316;2023-08-12T12:06:31;5.78;;;4.60;;
75854;SDS011;64502;59.976;30.316;2023-08-12T12:09:01;5.55;;;4.43;;
75854;SDS011;64502;59.976;30.316;2023-08-12T12:11:30;5.85;;;3.85;;
75854;SDS011;64502;59.976;30.316;2023-08-12T12:13:56;6.68;;;3.95;;
75854;SDS011;64502;59.976;30.316;2023-08-12T12:16:35;4.35;;;3.97;;
75854;SDS011;64502;59.976;30.316;2023-08-12T12:19:08;5.45;;;4.25;;
75854;SDS011;64502;59.976;30.316;2023-08-12T12:21:38;4.38;;;3.97;;
75854;SDS011;64502;59.976;30.316;2023-08-12T12:24:05;4.82;;;2.78;;
75854;SDS011;64502;59.976;30.316;2023-08-12T12:26:32;4.38;;;3.63;;
75854;SDS011;64502;59.976;30.316;2023-08-12T12:28:57;4.47;;;3.75;;
75854;SDS011;64502;59.976;30.316;2023-08-12T12:31:23;6.13;;;3.53;;
75854;SDS011;64502;59.976;30.316;2023-08-12T12:33:48;3.78;;;3.13;;
75854;SDS011;64502;59.976;30.316;2023-08-12T12:36:13;4.65;;;3.38;;
75854;SDS011;64502;59.976;30.316;2023-08-12T12:38:39;5.13;;;3.17;;
75854;SDS011;64502;59.976;30.316;2023-08-12T12:41:04;4.75;;;3.63;;
75854;SDS011;64502;59.976;30.316;2023-08-12T12:43:30;4.38;;;3.67;;
75854;SDS011;64502;59.976;30.316;2023-08-12T12:45:55;4.32;;;3.63;;
75854;SDS011;64502;59.976;30.316;2023-08-12T12:48:21;4.43;;;3.20;;
75854;SDS011;64502;59.976;30.316;2023-08-12T12:50:46;5.55;;;3.25;;
75854;SDS011;64502;59.976;30.316;2023-08-12T12:53:12;4.78;;;3.17;;
75854;SDS011;64502;59.976;30.316;2023-08-12T12:55:37;4.75;;;3.42;;
75854;SDS011;64502;59.976;30.316;2023-08-12T12:58:03;4.40;;;3.15;;
75854;SDS011;64502;59.976;30.316;2023-08-12T13:00:28;3.97;;;2.63;;
75854;SDS011;64502;59.976;30.316;2023-08-12T13:02:54;3.60;;;2.45;;
75854;SDS011;64502;59.976;30.316;2023-08-12T13:05:19;4.88;;;2.70;;
75854;SDS011;64502;59.976;30.316;2023-08-12T13:07:45;3.85;;;3.47;;
75854;SDS011;64502;59.976;30.316;2023-08-12T13:10:11;5.10;;;2.80;;
75854;SDS011;64502;59.976;30.316;2023-08-12T13:12:36;3.90;;;2.15;;
75854;SDS011;64502;59.976;30.316;2023-08-12T13:15:02;4.40;;;3.38;;
75854;SDS011;64502;59.976;30.316;2023-08-12T13:17:28;5.38;;;2.97;;
75854;SDS011;64502;59.976;30.316;2023-08-12T13:19:53;3.83;;;2.05;;
75854;SDS011;64502;59.976;30.316;2023-08-12T13:22:18;5.47;;;2.95;;
75854;SDS011;64502;59.976;30.316;2023-08-12T13:24:44;4.57;;;3.10;;
75854;SDS011;64502;59.976;30.316;2023-08-12T13:27:09;4.50;;;2.58;;
75854;SDS011;64502;59.976;30.316;2023-08-12T13:29:35;5.78;;;3.28;;
75854;SDS011;64502;59.976;30.316;2023-08-12T13:32:01;4.22;;;2.90;;
75854;SDS011;64502;59.976;30.316;2023-08-12T13:34:26;5.05;;;2.83;;
75854;SDS011;64502;59.976;30.316;2023-08-12T13:36:52;4.70;;;2.90;;
75854;SDS011;64502;59.976;30.316;2023-08-12T13:39:17;6.28;;;3.47;;
75854;SDS011;64502;59.976;30.316;2023-08-12T13:41:43;5.65;;;2.45;;
75854;SDS011;64502;59.976;30.316;2023-08-12T13:44:08;3.75;;;2.40;;
75854;SDS011;64502;59.976;30.316;2023-08-12T13:46:34;3.83;;;2.67;;
75854;SDS011;64502;59.976;30.316;2023-08-12T13:48:59;4.18;;;2.60;;
75854;SDS011;64502;59.976;30.316;2023-08-12T13:51:25;3.95;;;2.25;;
75854;SDS011;64502;59.976;30.316;2023-08-12T13:53:50;5.97;;;2.85;;
75854;SDS011;64502;59.976;30.316;2023-08-12T13:56:15;3.33;;;2.58;;
75854;SDS011;64502;59.976;30.316;2023-08-12T13:58:42;5.53;;;2.53;;
75854;SDS011;64502;59.976;30.316;2023-08-12T14:01:07;3.38;;;2.30;;
75854;SDS011;64502;59.976;30.316;2023-08-12T14:03:33;4.05;;;2.28;;
75854;SDS011;64502;59.976;30.316;2023-08-12T14:05:59;4.45;;;2.72;;
75854;SDS011;64502;59.976;30.316;2023-08-12T14:08:24;4.10;;;2.55;;
75854;SDS011;64502;59.976;30.316;2023-08-12T14:10:50;4.43;;;2.58;;
75854;SDS011;64502;59.976;30.316;2023-08-12T14:13:15;5.07;;;2.15;;
75854;SDS011;64502;59.976;30.316;2023-08-12T14:15:41;4.15;;;1.95;;
75854;SDS011;64502;59.976;30.316;2023-08-12T14:18:06;4.75;;;2.78;;
75854;SDS011;64502;59.976;30.316;2023-08-12T14:20:32;4.75;;;2.67;;
75854;SDS011;64502;59.976;30.316;2023-08-12T14:22:57;6.20;;;2.90;;
75854;SDS011;64502;59.976;30.316;2023-08-12T14:25:24;4.22;;;2.40;;
75854;SDS011;64502;59.976;30.316;2023-08-12T14:27:49;5.43;;;2.67;;
75854;SDS011;64502;59.976;30.316;2023-08-12T14:30:17;3.95;;;2.25;;
75854;SDS011;64502;59.976;30.316;2023-08-12T14:32:44;4.15;;;2.00;;
75854;SDS011;64502;59.976;30.316;2023-08-12T14:35:10;5.20;;;2.13;;
75854;SDS011;64502;59.976;30.316;2023-08-12T14:37:35;5.15;;;3.00;;
75854;SDS011;64502;59.976;30.316;2023-08-12T14:40:01;4.15;;;2.88;;
75854;SDS011;64502;59.976;30.316;2023-08-12T14:42:27;5.28;;;2.47;;
75854;SDS011;64502;59.976;30.316;2023-08-12T14:44:53;3.83;;;2.28;;
75854;SDS011;64502;59.976;30.316;2023-08-12T14:47:18;4.35;;;3.00;;